createdAt,value
2019-04-01T04:42:50.523Z,55.97
2019-04-01T04:45:19.683Z,59.47
2019-04-01T04:47:48.842Z,56.47
2019-04-01T04:50:18.003Z,58.43
2019-04-01T04:52:47.151Z,57.30
2019-04-01T04:55:16.327Z,56.93
2019-04-01T04:57:45.632Z,57.60
2019-04-01T05:00:15.207Z,56.07
2019-04-01T05:02:44.447Z,55.60
2019-04-01T05:05:13.907Z,61.07
2019-04-01T05:07:43.195Z,59.90
2019-04-01T05:10:12.570Z,56.33
2019-04-01T05:12:41.883Z,57.00
2019-04-01T05:15:11.327Z,56.03
2019-04-01T05:17:46.298Z,56.17
2019-04-01T05:20:16.644Z,53.57
2019-04-01T05:22:48.574Z,53.20
2019-04-01T05:25:17.920Z,51.63
2019-04-01T05:27:50.084Z,54.50
2019-04-01T05:30:19.359Z,54.77
2019-04-01T05:32:50.881Z,53.97
2019-04-01T05:35:20.534Z,44.53
2019-04-01T05:37:49.697Z,49.60
2019-04-01T05:40:21.260Z,50.43
2019-04-01T05:42:50.818Z,50.10
2019-04-01T05:45:23.135Z,50.17
2019-04-01T05:47:54.681Z,50.00
2019-04-01T05:50:23.951Z,52.67
2019-04-01T05:52:53.113Z,52.03
2019-04-01T05:55:24.579Z,52.03
2019-04-01T05:57:53.747Z,47.77
2019-04-01T06:00:35.101Z,48.13
2019-04-01T06:03:04.926Z,51.80
2019-04-01T06:05:34.572Z,45.93
2019-04-01T06:08:03.848Z,47.57
2019-04-01T06:10:33.071Z,44.80
2019-04-01T06:15:38.394Z,43.73
2019-04-01T06:18:09.509Z,42.63
2019-04-01T06:20:39.795Z,39.60
2019-04-01T06:23:09.043Z,42.40
2019-04-01T06:25:38.206Z,38.20
2019-04-01T06:28:07.368Z,38.03
2019-04-01T06:30:40.006Z,36.80
2019-04-01T06:33:12.495Z,39.83
2019-04-01T06:35:41.683Z,37.60
2019-04-01T06:38:12.387Z,36.30
2019-04-01T06:40:41.558Z,32.90
2019-04-01T06:43:10.824Z,33.07
2019-04-01T06:45:40.599Z,33.57
2019-04-01T06:48:10.222Z,35.50
2019-04-01T06:50:39.699Z,34.77
2019-04-01T06:53:09.499Z,32.33
2019-04-01T06:55:38.652Z,33.60
2019-04-01T06:58:08.144Z,34.77
2019-04-01T07:00:37.461Z,35.20
2019-04-01T07:03:06.599Z,32.27
2019-04-01T07:05:36.686Z,34.33
2019-04-01T07:08:08.272Z,33.93
2019-04-01T07:10:37.818Z,34.67
2019-04-01T07:13:07.691Z,32.07
2019-04-01T07:15:37.399Z,33.80
2019-04-01T07:18:06.585Z,32.27
2019-04-01T07:20:35.756Z,32.00
2019-04-01T07:23:08.719Z,34.90
2019-04-01T07:25:37.901Z,31.97
2019-04-01T07:28:07.076Z,34.03
2019-04-01T07:30:36.358Z,33.87
2019-04-01T07:33:05.535Z,32.93
2019-04-01T07:35:34.739Z,33.17
2019-04-01T07:38:06.462Z,33.53
2019-04-01T07:40:36.373Z,31.90
2019-04-01T07:43:06.288Z,32.37
2019-04-01T07:45:39.786Z,32.07
2019-04-01T07:48:12.325Z,31.27
2019-04-01T07:50:40.104Z,32.67
2019-04-01T07:53:09.263Z,32.00
2019-04-01T07:55:40.342Z,31.60
2019-04-01T07:58:10.200Z,32.43
2019-04-01T08:00:41.816Z,32.47
2019-04-01T08:03:11.035Z,32.37
2019-04-01T08:05:40.290Z,34.93
2019-04-01T08:08:09.981Z,31.37
2019-04-01T08:10:39.489Z,33.00
2019-04-01T08:13:12.440Z,31.33
2019-04-01T08:15:42.669Z,33.50
2019-04-01T08:18:11.938Z,32.83
2019-04-01T08:20:45.851Z,33.90
2019-04-01T08:23:15.387Z,32.90
2019-04-01T08:25:47.758Z,31.93
2019-04-01T08:28:15.643Z,32.70
2019-04-01T08:30:44.793Z,31.97
2019-04-01T08:33:13.965Z,32.70
2019-04-01T08:35:46.137Z,33.50
2019-04-01T08:38:15.513Z,32.33
2019-04-01T08:40:44.767Z,31.73
2019-04-01T08:43:14.442Z,31.90
2019-04-01T08:45:46.349Z,31.83
2019-04-01T08:48:15.550Z,30.30
2019-04-01T08:50:45.295Z,31.23
2019-04-01T08:53:14.557Z,30.87
2019-04-01T08:55:43.808Z,34.07
2019-04-01T08:58:13.032Z,31.87
2019-04-01T09:00:42.169Z,30.37
2019-04-01T09:03:11.571Z,31.17
2019-04-01T09:05:40.932Z,31.77
2019-04-01T09:08:10.137Z,31.13
2019-04-01T09:10:40.126Z,30.60
2019-04-01T09:13:12.036Z,32.17
2019-04-01T09:15:42.408Z,30.27
2019-04-01T09:18:13.682Z,28.87
2019-04-01T09:20:42.930Z,29.00
2019-04-01T09:23:12.360Z,27.93
2019-04-01T09:25:41.559Z,27.73
2019-04-01T09:28:10.747Z,30.17
2019-04-01T09:30:39.923Z,31.57
2019-04-01T09:33:09.202Z,30.53
2019-04-01T09:35:40.871Z,28.40
2019-04-01T09:38:09.938Z,29.77
2019-04-01T09:40:39.272Z,28.77
2019-04-01T09:43:08.454Z,30.40
2019-04-01T09:45:42.864Z,29.60
2019-04-01T09:48:12.187Z,29.90
2019-04-01T09:50:41.464Z,30.20
2019-04-01T09:53:12.148Z,29.47
2019-04-01T09:55:41.384Z,29.97
2019-04-01T09:58:10.955Z,30.03
2019-04-01T10:00:40.126Z,30.47
2019-04-01T10:03:09.315Z,28.67
2019-04-01T10:05:39.688Z,29.93
2019-04-01T10:08:12.025Z,30.53
2019-04-01T10:10:41.186Z,31.40
2019-04-01T10:13:10.344Z,28.30
2019-04-01T10:15:39.538Z,29.27
2019-04-01T10:18:08.699Z,29.70
2019-04-01T10:20:37.879Z,28.93
2019-04-01T10:23:07.279Z,29.13
2019-04-01T10:25:36.493Z,29.63
2019-04-01T10:28:06.716Z,29.40
2019-04-01T10:30:35.919Z,28.63
2019-04-01T10:33:07.059Z,30.67
2019-04-01T10:35:36.319Z,31.05
2019-04-01T10:38:05.647Z,30.37
2019-04-01T10:40:35.882Z,29.83
2019-04-01T10:43:05.072Z,29.00
2019-04-01T10:45:34.265Z,28.30
2019-04-01T10:48:03.443Z,29.10
2019-04-01T10:50:32.797Z,28.80
2019-04-01T10:53:02.255Z,32.67
2019-04-01T10:55:32.088Z,28.20
2019-04-01T10:58:01.544Z,27.37
2019-04-01T11:00:31.213Z,29.27
2019-04-01T11:03:06.043Z,29.47
2019-04-01T11:05:38.400Z,29.93
2019-04-01T11:08:08.068Z,28.53
2019-04-01T11:10:37.361Z,28.53
2019-04-01T11:13:06.591Z,29.10
2019-04-01T11:15:35.943Z,29.87
2019-04-01T11:18:05.176Z,33.00
2019-04-01T11:20:34.391Z,29.60
2019-04-01T11:23:04.979Z,30.33
2019-04-01T11:25:34.813Z,30.50
2019-04-01T11:28:04.003Z,29.10
2019-04-01T11:30:36.723Z,29.43
2019-04-01T11:33:07.583Z,30.53
2019-04-01T11:35:37.206Z,29.03
2019-04-01T11:38:06.493Z,30.07
2019-04-01T11:40:38.760Z,29.13
2019-04-01T11:43:09.546Z,29.47
2019-04-01T11:45:46.346Z,30.33
2019-04-01T11:48:15.717Z,28.87
2019-04-01T11:50:47.929Z,29.17
2019-04-01T11:53:18.923Z,30.40
2019-04-01T11:55:48.138Z,29.23
2019-04-01T11:58:17.397Z,29.03
2019-04-01T12:00:46.635Z,30.47
2019-04-01T12:03:16.033Z,29.70
2019-04-01T12:05:45.193Z,30.73
2019-04-01T12:08:17.008Z,29.63
2019-04-01T12:10:46.245Z,29.17
2019-04-01T12:13:18.230Z,28.73
2019-04-01T12:15:47.472Z,28.77
2019-04-01T12:18:16.645Z,31.37
2019-04-01T12:20:46.184Z,28.07
2019-04-01T12:23:15.562Z,29.07
2019-04-01T12:25:45.906Z,27.27
2019-04-01T12:28:15.305Z,28.33
2019-04-01T12:30:44.603Z,27.77
2019-04-01T12:33:13.944Z,30.07
2019-04-01T12:35:43.200Z,28.10
2019-04-01T12:38:12.448Z,28.10
2019-04-01T12:40:41.610Z,27.50
2019-04-01T12:43:10.779Z,27.00
2019-04-01T12:45:40.569Z,27.30
2019-04-01T12:48:10.144Z,29.47
2019-04-01T12:50:39.390Z,27.07
2019-04-01T12:53:10.011Z,27.63
2019-04-01T12:55:40.400Z,29.77
2019-04-01T12:58:09.851Z,26.47
2019-04-01T13:00:40.728Z,25.37
2019-04-01T13:03:10.118Z,26.20
2019-04-01T13:05:40.778Z,26.97
2019-04-01T13:08:10.368Z,25.07
2019-04-01T13:10:39.577Z,28.30
2019-04-01T13:13:08.758Z,23.67
2019-04-01T13:15:37.916Z,25.23
2019-04-01T13:18:07.125Z,25.67
2019-04-01T13:20:38.483Z,25.07
2019-04-01T13:23:08.191Z,25.83
2019-04-01T13:25:38.358Z,26.03
2019-04-01T13:28:12.550Z,21.97
2019-04-01T13:30:41.746Z,22.60
2019-04-01T13:33:10.993Z,23.77
2019-04-01T13:35:40.298Z,23.00
2019-04-01T13:38:11.244Z,23.73
2019-04-01T13:40:41.316Z,22.17
2019-04-01T13:43:12.553Z,22.73
2019-04-01T13:45:42.267Z,20.47
2019-04-01T13:48:11.984Z,22.53
2019-04-01T13:50:41.330Z,25.23
2019-04-01T13:53:10.755Z,21.90
2019-04-01T13:55:39.988Z,22.60
2019-04-01T13:58:10.512Z,22.87
2019-04-01T14:00:40.160Z,22.93
2019-04-01T14:03:11.171Z,22.10
2019-04-01T14:05:40.252Z,20.93
2019-04-01T14:08:09.682Z,21.50
2019-04-01T14:10:40.522Z,22.03
2019-04-01T14:13:09.840Z,22.23
2019-04-01T14:15:41.081Z,22.53
2019-04-01T14:18:09.955Z,22.57
2019-04-01T14:20:40.081Z,21.80
2019-04-01T14:23:12.034Z,22.80
2019-04-01T14:25:42.284Z,21.53
2019-04-01T14:28:12.451Z,22.60
2019-04-01T14:30:42.099Z,22.10
2019-04-01T14:33:11.351Z,25.90
2019-04-01T14:35:40.553Z,21.50
2019-04-01T14:38:11.179Z,20.57
2019-04-01T14:40:40.503Z,20.27
2019-04-01T14:43:10.858Z,19.53
2019-04-01T14:45:41.745Z,22.40
2019-04-01T14:48:12.417Z,20.33
2019-04-01T14:50:41.595Z,20.47
2019-04-01T14:53:10.790Z,23.17
2019-04-01T14:55:40.125Z,19.40
2019-04-01T14:58:10.104Z,19.10
2019-04-01T15:00:39.313Z,21.23
2019-04-01T15:03:09.001Z,18.77
2019-04-01T15:05:38.371Z,19.90
2019-04-01T15:08:07.525Z,19.13
2019-04-01T15:10:36.799Z,23.07
2019-04-01T15:13:06.225Z,23.77
2019-04-01T15:15:35.797Z,20.77
2019-04-01T15:18:05.014Z,19.40
2019-04-01T15:20:34.213Z,20.97
2019-04-01T15:23:03.726Z,19.97
2019-04-01T15:25:34.041Z,20.37
2019-04-01T15:28:03.222Z,19.10
2019-04-01T15:30:32.436Z,19.93
2019-04-01T15:33:04.586Z,19.40
2019-04-01T15:35:33.838Z,19.87
2019-04-01T15:38:03.140Z,20.27
2019-04-01T15:40:34.827Z,20.43
2019-04-01T15:43:05.582Z,21.13
2019-04-01T15:45:35.471Z,16.80
2019-04-01T15:48:07.528Z,20.50
2019-04-01T15:50:38.315Z,20.07
2019-04-01T15:53:07.756Z,22.70
2019-04-01T15:55:36.962Z,19.70
2019-04-01T15:58:06.194Z,22.57
2019-04-01T16:00:35.437Z,19.23
2019-04-01T16:03:04.729Z,19.00
2019-04-01T16:05:34.338Z,21.90
2019-04-01T16:08:04.034Z,18.63
2019-04-01T16:10:35.646Z,19.00
2019-04-01T16:13:04.903Z,22.80
2019-04-01T16:15:34.100Z,18.83
2019-04-01T16:18:03.468Z,18.50
2019-04-01T16:20:34.559Z,19.83
2019-04-01T16:23:19.984Z,19.50
2019-04-01T16:25:49.222Z,18.87
2019-04-01T16:28:18.421Z,19.67
2019-04-01T16:30:49.368Z,22.97
2019-04-01T16:33:18.652Z,19.00
2019-04-01T16:35:47.890Z,22.93
2019-04-01T16:38:17.092Z,20.30
2019-04-01T16:40:47.067Z,22.10
2019-04-01T16:43:21.661Z,18.93
2019-04-01T16:45:50.841Z,18.77
2019-04-01T16:48:20.003Z,19.23
2019-04-01T16:50:49.173Z,21.60
2019-04-01T16:53:18.420Z,20.20
2019-04-01T16:55:47.866Z,18.83
2019-04-01T16:58:17.043Z,19.37
2019-04-01T17:00:46.214Z,21.33
2019-04-01T17:03:15.825Z,18.17
2019-04-01T17:05:46.808Z,17.87
2019-04-01T17:08:16.173Z,23.17
2019-04-01T17:10:45.448Z,17.27
2019-04-01T17:13:14.908Z,18.63
2019-04-01T17:15:44.154Z,20.50
2019-04-01T17:18:13.409Z,19.87
2019-04-01T17:20:42.604Z,18.63
2019-04-01T17:23:11.894Z,20.70
2019-04-01T17:25:41.036Z,22.03
2019-04-01T17:28:11.735Z,22.17
2019-04-01T17:30:40.971Z,17.87
2019-04-01T17:33:10.282Z,20.33
2019-04-01T17:35:39.760Z,20.53
2019-04-01T17:38:13.723Z,20.33
2019-04-01T17:40:45.171Z,25.03
2019-04-01T17:43:16.238Z,20.33
2019-04-01T17:45:47.437Z,20.37
2019-04-01T17:48:16.914Z,20.67
2019-04-01T17:50:46.237Z,21.17
2019-04-01T17:53:15.542Z,21.90
2019-04-01T17:55:45.747Z,22.07
2019-04-01T17:58:15.954Z,19.63
2019-04-01T18:00:51.969Z,24.53
2019-04-01T18:03:21.275Z,23.37
2019-04-01T18:05:50.526Z,24.73
2019-04-01T18:08:20.174Z,22.10
2019-04-01T18:10:51.894Z,24.03
2019-04-01T18:13:21.280Z,25.57
2019-04-01T18:15:51.817Z,26.07
2019-04-01T18:18:26.990Z,25.23
2019-04-01T18:20:51.962Z,23.70
2019-04-01T18:23:24.096Z,24.87
2019-04-01T18:25:53.394Z,28.97
2019-04-01T18:28:22.600Z,24.47
2019-04-01T18:30:51.773Z,26.23
2019-04-01T18:33:21.151Z,23.77
2019-04-01T18:35:50.471Z,26.57
2019-04-01T18:38:19.750Z,22.70
2019-04-01T18:40:49.031Z,23.77
2019-04-01T18:43:18.350Z,21.73
2019-04-01T18:45:47.569Z,22.00
2019-04-01T18:48:17.122Z,21.00
2019-04-01T18:50:46.384Z,20.40
2019-04-01T18:53:15.835Z,22.82
2019-04-01T18:55:45.093Z,20.97
2019-04-01T18:58:14.429Z,26.23
2019-04-01T19:00:43.712Z,20.47
2019-04-01T19:03:13.528Z,22.37
2019-04-01T19:05:42.740Z,23.40
2019-04-01T19:08:12.047Z,19.63
2019-04-01T19:10:44.516Z,25.60
2019-04-01T19:13:13.865Z,20.90
2019-04-01T19:15:43.806Z,19.93
2019-04-01T19:18:13.598Z,21.30
2019-04-01T19:20:55.763Z,20.43
2019-04-01T19:23:14.624Z,19.65
2019-04-01T19:25:43.818Z,18.70
2019-04-01T19:28:13.441Z,19.47
2019-04-01T19:30:44.307Z,22.30
2019-04-01T19:33:13.499Z,20.13
2019-04-01T19:35:45.850Z,20.73
2019-04-01T19:38:15.043Z,23.37
2019-04-01T19:40:46.038Z,22.80
2019-04-01T19:43:16.359Z,20.87
2019-04-01T19:45:46.248Z,19.63
2019-04-01T19:48:17.102Z,21.27
2019-04-01T19:50:46.483Z,18.90
2019-04-01T19:53:16.852Z,18.83
2019-04-01T19:55:48.981Z,19.47
2019-04-01T19:58:18.212Z,19.37
2019-04-01T20:00:47.758Z,21.27
2019-04-01T20:03:16.949Z,18.63
2019-04-01T20:05:46.290Z,20.63
2019-04-01T20:08:17.582Z,19.40
2019-04-01T20:10:54.102Z,18.50
2019-04-01T20:13:23.436Z,18.93
2019-04-01T20:15:53.031Z,18.87
2019-04-01T20:18:22.425Z,20.10
2019-04-01T20:20:52.062Z,22.73
2019-04-01T20:23:22.159Z,20.97
2019-04-01T20:25:52.855Z,18.73
2019-04-01T20:28:22.127Z,18.53
2019-04-01T20:30:51.354Z,20.50
2019-04-01T20:33:21.072Z,20.43
2019-04-01T20:35:50.635Z,20.23
2019-04-01T20:38:19.840Z,18.03
2019-04-01T20:40:49.132Z,24.33
2019-04-01T20:43:18.303Z,20.13
2019-04-01T20:45:47.526Z,21.33
2019-04-01T20:48:16.749Z,20.60
2019-04-01T20:50:46.232Z,18.27
2019-04-01T20:53:15.458Z,18.73
2019-04-01T20:55:48.451Z,19.73
2019-04-01T20:58:16.833Z,19.57
2019-04-01T21:00:46.090Z,19.70
2019-04-01T21:03:18.056Z,21.00
2019-04-01T21:05:47.232Z,17.93
2019-04-01T21:08:17.888Z,20.70
2019-04-01T21:10:47.214Z,22.77
2019-04-01T21:13:16.562Z,17.93
2019-04-01T21:15:45.738Z,19.33
2019-04-01T21:18:16.835Z,19.23
2019-04-01T21:20:52.294Z,18.20
2019-04-01T21:23:21.527Z,21.03
2019-04-01T21:25:50.676Z,22.07
2019-04-01T21:28:22.642Z,18.50
2019-04-01T21:30:50.771Z,20.17
2019-04-01T21:33:20.040Z,21.70
2019-04-01T21:35:50.385Z,21.80
2019-04-01T21:38:19.726Z,18.97
2019-04-01T21:40:48.963Z,18.93
2019-04-01T21:43:19.190Z,19.07
2019-04-01T21:45:49.102Z,19.07
2019-04-01T21:48:18.471Z,18.93
2019-04-01T21:50:47.826Z,18.83
2019-04-01T21:53:16.966Z,16.70
2019-04-01T21:55:46.183Z,18.13
2019-04-01T21:58:15.483Z,20.57
